createdAt,value
2022-10-17T00:02:52.281Z,1004.73
2022-10-17T00:12:58.632Z,1004.72
2022-10-17T00:23:05.105Z,1004.91
2022-10-17T00:33:11.032Z,1005.06
2022-10-17T00:43:17.204Z,1004.97
2022-10-17T00:53:25.619Z,1004.79
2022-10-17T01:03:32.015Z,1004.72
2022-10-17T01:13:38.052Z,1004.74
2022-10-17T01:23:44.428Z,1004.75
2022-10-17T01:33:50.826Z,1004.76
2022-10-17T01:43:57.203Z,1004.78
2022-10-17T01:54:03.376Z,1004.75
2022-10-17T02:04:09.824Z,1004.82
2022-10-17T02:14:15.902Z,1004.91
2022-10-17T02:24:22.139Z,1004.91
2022-10-17T02:34:28.625Z,1004.91
2022-10-17T02:44:36.100Z,1004.94
2022-10-17T02:54:41.864Z,1004.95
2022-10-17T03:04:48.317Z,1004.95
2022-10-17T03:14:54.423Z,1004.95
2022-10-17T03:25:01.028Z,1005.00
2022-10-17T03:35:08.401Z,1005.07
2022-10-17T03:45:17.643Z,1005.31
2022-10-17T03:55:24.038Z,1005.31
2022-10-17T04:05:30.403Z,1005.39
2022-10-17T04:15:36.616Z,1005.49
2022-10-17T04:25:42.573Z,1005.48
2022-10-17T04:35:48.688Z,1005.51
2022-10-17T04:45:54.964Z,1005.62
2022-10-17T04:56:01.312Z,1005.60
2022-10-17T05:06:07.641Z,1005.51
2022-10-17T05:16:13.589Z,1005.54
2022-10-17T05:26:20.926Z,1005.55
2022-10-17T05:36:26.870Z,1005.62
2022-10-17T05:46:34.321Z,1005.66
2022-10-17T05:56:39.866Z,1005.76
2022-10-17T06:06:48.088Z,1005.90
2022-10-17T06:16:54.479Z,1006.03
2022-10-17T06:27:00.838Z,1006.07
2022-10-17T06:37:07.051Z,1006.24
2022-10-17T06:47:19.975Z,1006.36
2022-10-17T06:57:26.821Z,1006.34
2022-10-17T07:07:34.405Z,1006.44
2022-10-17T07:17:40.274Z,1006.49
2022-10-17T07:27:47.499Z,1006.54
2022-10-17T07:37:53.314Z,1006.49
2022-10-17T07:48:00.389Z,1006.57
2022-10-17T07:58:05.859Z,1006.65
2022-10-17T08:08:13.064Z,1006.68
2022-10-17T08:18:18.603Z,1006.76
2022-10-17T08:28:25.852Z,1006.66
2022-10-17T08:38:35.119Z,1006.54
2022-10-17T08:48:46.317Z,1006.57
2022-10-17T08:58:52.028Z,1006.51
2022-10-17T09:08:59.021Z,1006.51
2022-10-17T09:19:04.768Z,1006.57
2022-10-17T09:29:11.717Z,1006.57
2022-10-17T09:39:17.333Z,1006.47
2022-10-17T09:49:24.491Z,1006.43
2022-10-17T09:59:30.420Z,1006.43
2022-10-17T10:09:39.584Z,1006.21
2022-10-17T10:19:46.307Z,1006.19
2022-10-17T10:29:53.814Z,1006.19
2022-10-17T10:39:59.797Z,1006.19
2022-10-17T10:50:07.105Z,1006.10
2022-10-17T11:00:13.264Z,1006.08
2022-10-17T11:10:20.916Z,1005.99
2022-10-17T11:20:26.708Z,1005.87
2022-10-17T11:30:33.910Z,1005.90
2022-10-17T11:40:39.392Z,1005.84
2022-10-17T12:00:57.098Z,1005.78
2022-10-17T12:11:04.185Z,1005.76
2022-10-17T12:21:09.932Z,1005.69
2022-10-17T12:31:16.875Z,1005.67
2022-10-17T12:41:22.291Z,1005.67
2022-10-17T12:51:37.958Z,1005.67
2022-10-17T13:01:40.255Z,1005.73
2022-10-17T13:11:47.548Z,1005.71
2022-10-17T13:21:53.361Z,1005.70
2022-10-17T13:32:00.312Z,1005.77
2022-10-17T13:42:05.952Z,1005.88
2022-10-17T13:52:13.190Z,1005.83
2022-10-17T14:02:18.937Z,1005.86
2022-10-17T14:12:25.919Z,1005.82
2022-10-17T14:22:31.579Z,1005.85
2022-10-17T14:32:38.586Z,1006.02
2022-10-17T14:42:44.122Z,1006.04
2022-10-17T14:52:51.052Z,1006.13
2022-10-17T15:02:56.584Z,1006.17
2022-10-17T15:13:26.733Z,1006.29
2022-10-17T15:23:14.592Z,1006.37
2022-10-17T15:33:21.464Z,1006.28
2022-10-17T15:43:27.450Z,1006.42
2022-10-17T15:53:34.364Z,1006.39
2022-10-17T16:03:39.500Z,1006.37
2022-10-17T16:13:46.894Z,1006.48
2022-10-17T16:23:52.383Z,1006.54
2022-10-17T16:33:59.200Z,1006.62
2022-10-17T16:44:04.713Z,1006.80
2022-10-17T16:54:11.474Z,1006.97
2022-10-17T17:04:17.370Z,1006.99
2022-10-17T17:14:26.024Z,1007.13
2022-10-17T17:24:31.372Z,1007.21
2022-10-17T17:34:38.171Z,1007.29
2022-10-17T17:44:43.482Z,1007.25
2022-10-17T17:54:50.465Z,1007.34
2022-10-17T18:04:55.833Z,1007.48
2022-10-17T18:15:03.127Z,1007.55
2022-10-17T18:25:08.778Z,1007.64
2022-10-17T18:35:16.029Z,1007.65
2022-10-17T18:45:21.585Z,1007.73
2022-10-17T18:55:28.708Z,1007.74
2022-10-17T19:05:34.078Z,1007.93
2022-10-17T19:15:41.054Z,1008.08
2022-10-17T19:25:46.872Z,1008.05
2022-10-17T19:35:54.016Z,1008.06
2022-10-17T19:45:59.867Z,1008.00
2022-10-17T19:56:06.668Z,1007.97
2022-10-17T20:06:12.131Z,1008.00
2022-10-17T20:16:19.351Z,1008.11
2022-10-17T20:26:36.985Z,1008.28
2022-10-17T20:36:38.231Z,1008.41
2022-10-17T20:46:52.909Z,1008.53
2022-10-17T20:57:02.635Z,1008.58
2022-10-17T21:07:10.742Z,1008.68
2022-10-17T21:17:17.936Z,1008.65
2022-10-17T21:27:24.131Z,1008.63
2022-10-17T21:37:31.280Z,1008.66
2022-10-17T21:47:38.548Z,1008.63
2022-10-17T21:57:45.995Z,1008.64
2022-10-17T22:07:51.315Z,1008.62
2022-10-17T22:17:58.268Z,1008.73
2022-10-17T22:28:04.092Z,1008.78
2022-10-17T22:38:10.915Z,1008.80
2022-10-17T22:48:16.808Z,1008.78
2022-10-17T22:58:23.728Z,1008.74
2022-10-17T23:08:29.443Z,1008.79
2022-10-17T23:18:37.519Z,1008.67
2022-10-17T23:28:43.532Z,1008.64
2022-10-17T23:38:52.756Z,1008.58
2022-10-17T23:49:01.124Z,1008.57
2022-10-17T23:59:09.446Z,1008.59
